Orbital elements of PSLV DEB
| Launched | 21 October 2001 |
| Flight ended | – |
| Launch site | Satish Dhawan Space Centre, India (Formerly Sriharikota Launching Range) |
| Owner | India |
| NORAD ID | 27580 |
| Date fetched |
Epoch osculation |
Inc. [°] |
Ecc. | RA asc node [hr] |
Arg Peri. [°] |
Mean anom [°] |
Mean motion [rev/day] |
Abs. mag |
| Date fetched |
Epoch osculation |
Inc. [°] |
Ecc. | RA asc node [hr] |
Arg Peri. [°] |
Mean anom [°] |
Mean motion [rev/day] |
Abs. mag |
| 2026 May 05 17:57 | 2026 May 03 20:16:31 | 98.2590 | 0.00444 | 10.7554 | 111.5821 | 249.0123 | 14.78071 | – |
| 2026 May 04 17:57 | 2026 Apr 29 20:25:00 | 98.2594 | 0.00442 | 10.4824 | 124.0313 | 249.0123 | 14.78071 | – |
| 2026 May 03 17:57 | 2026 Apr 29 20:25:00 | 98.2594 | 0.00442 | 10.4824 | 124.0313 | 249.0123 | 14.78071 | – |
| 2026 May 02 17:57 | 2026 Apr 29 20:25:00 | 98.2594 | 0.00442 | 10.4824 | 124.0313 | 249.0123 | 14.78071 | – |
| 2026 May 01 17:56 | 2026 Apr 29 20:25:00 | 98.2594 | 0.00442 | 10.4824 | 124.0313 | 249.0123 | 14.78071 | – |
| 2026 Apr 30 17:56 | 2026 Apr 29 20:25:00 | 98.2594 | 0.00442 | 10.4824 | 124.0313 | 249.0123 | 14.78071 | – |
| 2026 Apr 29 17:57 | 2026 Apr 20 20:19:35 | 98.2613 | 0.00438 | 9.8669 | 152.2389 | 249.0123 | 14.78071 | – |
| 2026 Apr 28 17:56 | 2026 Apr 20 20:19:35 | 98.2613 | 0.00438 | 9.8669 | 152.2389 | 249.0123 | 14.78071 | – |
| 2026 Apr 27 17:58 | 2026 Apr 20 20:19:35 | 98.2613 | 0.00438 | 9.8669 | 152.2389 | 249.0123 | 14.78071 | – |
| 2026 Apr 26 17:58 | 2026 Apr 20 20:19:35 | 98.2613 | 0.00438 | 9.8669 | 152.2389 | 249.0123 | 14.78071 | – |
| 2026 Apr 25 17:58 | 2026 Apr 20 20:19:35 | 98.2613 | 0.00438 | 9.8669 | 152.2389 | 249.0123 | 14.78071 | – |
| 2026 Apr 24 17:59 | 2026 Apr 20 20:19:35 | 98.2613 | 0.00438 | 9.8669 | 152.2389 | 249.0123 | 14.78071 | – |
| 2026 Apr 23 17:57 | 2026 Apr 19 08:34:55 | 98.2616 | 0.00437 | 9.7651 | 156.9478 | 249.0123 | 14.78071 | – |
| 2026 Apr 22 17:57 | 2026 Apr 19 08:34:55 | 98.2616 | 0.00437 | 9.7651 | 156.9478 | 249.0123 | 14.78071 | – |
| 2026 Apr 21 17:57 | 2026 Apr 19 08:34:55 | 98.2616 | 0.00437 | 9.7651 | 156.9478 | 249.0123 | 14.78071 | – |
| 2026 Apr 20 17:57 | 2026 Apr 19 08:34:55 | 98.2616 | 0.00437 | 9.7651 | 156.9478 | 249.0123 | 14.78071 | – |
| 2026 Apr 19 17:58 | 2026 Apr 19 08:34:55 | 98.2616 | 0.00437 | 9.7651 | 156.9478 | 249.0123 | 14.78071 | – |
| 2026 Apr 18 17:56 | 2026 Apr 11 20:14:03 | 98.2628 | 0.00431 | 9.2514 | 180.8364 | 249.0123 | 14.78071 | – |
| 2026 Apr 16 17:57 | 2026 Apr 11 20:14:03 | 98.2628 | 0.00431 | 9.2514 | 180.8364 | 249.0123 | 14.78071 | – |
| 2026 Apr 14 17:57 | 2026 Apr 11 20:14:03 | 98.2628 | 0.00431 | 9.2514 | 180.8364 | 249.0123 | 14.78071 | – |
| 2026 Apr 13 17:57 | 2026 Apr 11 20:14:03 | 98.2628 | 0.00431 | 9.2514 | 180.8364 | 249.0123 | 14.78071 | – |
| 2026 Apr 12 17:57 | 2026 Apr 06 20:00:07 | 98.2632 | 0.00427 | 8.9088 | 196.9466 | 249.0123 | 14.78071 | – |
| 2026 Apr 11 17:57 | 2026 Apr 06 20:00:07 | 98.2632 | 0.00427 | 8.9088 | 196.9466 | 249.0123 | 14.78071 | – |
| 2026 Apr 10 17:58 | 2026 Apr 06 20:00:07 | 98.2632 | 0.00427 | 8.9088 | 196.9466 | 249.0123 | 14.78071 | – |
| 2026 Apr 09 18:01 | 2026 Apr 06 20:00:07 | 98.2632 | 0.00427 | 8.9088 | 196.9466 | 249.0123 | 14.78071 | – |
| 2026 Apr 08 17:57 | 2026 Apr 06 20:00:07 | 98.2632 | 0.00427 | 8.9088 | 196.9466 | 249.0123 | 14.78071 | – |